<?xml version="1.0" encoding="UTF-8" standalone="no" ?>
<gpx xmlns="http://www.topografix.com/GPX/1/1" xmlns:xsi="http://www.w3.org/2001/XMLSchema-instance" xsi:schemaLocation="http://www.topografix.com/GPX/1/1 http://www.topografix.com/GPX/1/1/gpx.xsd" version="1.1" creator="VisuGPX - https://www.visugpx.com">
  <metadata>
    <name>ILE DE RE - VTT - Un aller-retour de Sainte Marie de Ré à Loix via Saint Martin de Ré.</name>
    <desc><![CDATA[Balade, problème Gps au départ seul le retour a été tracé. Multiplier tout par deux pour aller-retour.]]></desc>
  </metadata>
  <wpt lat="46.17257" lon="-1.35693">
    <ele>2.769531</ele>
    <name><![CDATA[001]]></name>
    <desc><![CDATA[18-AOU-14 10:45:34]]></desc>
    <cmt><![CDATA[18-AOU-14 10:45:34]]></cmt>
  </wpt>
  <wpt lat="46.21604" lon="-1.43872">
    <ele>-22.464966</ele>
    <name><![CDATA[002]]></name>
    <desc><![CDATA[20-AOU-14 17:20:46]]></desc>
    <cmt><![CDATA[20-AOU-14 17:20:46]]></cmt>
  </wpt>
  <trk>
    <name><![CDATA[ACTIVE LOG 004]]></name>
    <trkseg>
      <trkpt lat="46.2057" lon="-1.37068">
        <ele>0.618042</ele>
        <time>2014-08-20T17:11:04Z</time>
      </trkpt>
      <trkpt lat="46.20574" lon="-1.37077">
        <ele>2.540649</ele>
        <time>2014-08-20T17:11:19Z</time>
      </trkpt>
      <trkpt lat="46.20572" lon="-1.37077">
        <ele>1.579346</ele>
        <time>2014-08-20T17:11:21Z</time>
      </trkpt>
      <trkpt lat="46.20571" lon="-1.37079">
        <ele>1.098633</ele>
        <time>2014-08-20T17:11:23Z</time>
      </trkpt>
      <trkpt lat="46.20571" lon="-1.3708">
        <ele>1.098633</ele>
        <time>2014-08-20T17:11:24Z</time>
      </trkpt>
      <trkpt lat="46.20573" lon="-1.37093">
        <ele>3.982666</ele>
        <time>2014-08-20T17:11:29Z</time>
      </trkpt>
      <trkpt lat="46.20568" lon="-1.37156">
        <ele>5.424561</ele>
        <time>2014-08-20T17:11:41Z</time>
      </trkpt>
      <trkpt lat="46.20566" lon="-1.37168">
        <ele>3.982666</ele>
        <time>2014-08-20T17:11:44Z</time>
      </trkpt>
      <trkpt lat="46.20552" lon="-1.37219">
        <ele>3.02124</ele>
        <time>2014-08-20T17:12:00Z</time>
      </trkpt>
      <trkpt lat="46.20536" lon="-1.37256">
        <ele>2.540649</ele>
        <time>2014-08-20T17:12:15Z</time>
      </trkpt>
      <trkpt lat="46.20506" lon="-1.37279">
        <ele>3.982666</ele>
        <time>2014-08-20T17:12:29Z</time>
      </trkpt>
      <trkpt lat="46.20466" lon="-1.37286">
        <ele>4.943848</ele>
        <time>2014-08-20T17:12:45Z</time>
      </trkpt>
      <trkpt lat="46.20446" lon="-1.373">
        <ele>5.424561</ele>
        <time>2014-08-20T17:13:01Z</time>
      </trkpt>
      <trkpt lat="46.20443" lon="-1.37303">
        <ele>6.385864</ele>
        <time>2014-08-20T17:13:09Z</time>
      </trkpt>
      <trkpt lat="46.20419" lon="-1.37316">
        <ele>8.308594</ele>
        <time>2014-08-20T17:13:24Z</time>
      </trkpt>
      <trkpt lat="46.20376" lon="-1.37318">
        <ele>9.269897</ele>
        <time>2014-08-20T17:13:37Z</time>
      </trkpt>
      <trkpt lat="46.20337" lon="-1.37322">
        <ele>9.269897</ele>
        <time>2014-08-20T17:13:50Z</time>
      </trkpt>
      <trkpt lat="46.20298" lon="-1.37326">
        <ele>8.789185</ele>
        <time>2014-08-20T17:14:06Z</time>
      </trkpt>
      <trkpt lat="46.20247" lon="-1.37325">
        <ele>9.269897</ele>
        <time>2014-08-20T17:14:24Z</time>
      </trkpt>
      <trkpt lat="46.20206" lon="-1.37348">
        <ele>9.75061</ele>
        <time>2014-08-20T17:14:40Z</time>
      </trkpt>
      <trkpt lat="46.20163" lon="-1.37403">
        <ele>9.269897</ele>
        <time>2014-08-20T17:14:59Z</time>
      </trkpt>
      <trkpt lat="46.20136" lon="-1.37453">
        <ele>9.269897</ele>
        <time>2014-08-20T17:15:17Z</time>
      </trkpt>
      <trkpt lat="46.20124" lon="-1.375">
        <ele>8.789185</ele>
        <time>2014-08-20T17:15:27Z</time>
      </trkpt>
      <trkpt lat="46.20113" lon="-1.37502">
        <ele>8.789185</ele>
        <time>2014-08-20T17:15:32Z</time>
      </trkpt>
      <trkpt lat="46.20104" lon="-1.37501">
        <ele>9.269897</ele>
        <time>2014-08-20T17:15:36Z</time>
      </trkpt>
      <trkpt lat="46.20096" lon="-1.37509">
        <ele>9.269897</ele>
        <time>2014-08-20T17:15:40Z</time>
      </trkpt>
      <trkpt lat="46.20069" lon="-1.3752">
        <ele>9.269897</ele>
        <time>2014-08-20T17:15:54Z</time>
      </trkpt>
      <trkpt lat="46.20042" lon="-1.37512">
        <ele>8.308594</ele>
        <time>2014-08-20T17:16:06Z</time>
      </trkpt>
      <trkpt lat="46.2004" lon="-1.37512">
        <ele>8.789185</ele>
        <time>2014-08-20T17:16:07Z</time>
      </trkpt>
      <trkpt lat="46.20032" lon="-1.37525">
        <ele>9.269897</ele>
        <time>2014-08-20T17:16:12Z</time>
      </trkpt>
      <trkpt lat="46.20029" lon="-1.37537">
        <ele>8.789185</ele>
        <time>2014-08-20T17:16:15Z</time>
      </trkpt>
      <trkpt lat="46.19993" lon="-1.37543">
        <ele>8.308594</ele>
        <time>2014-08-20T17:16:28Z</time>
      </trkpt>
      <trkpt lat="46.19938" lon="-1.37544">
        <ele>7.827881</ele>
        <time>2014-08-20T17:16:41Z</time>
      </trkpt>
      <trkpt lat="46.1987" lon="-1.37544">
        <ele>7.827881</ele>
        <time>2014-08-20T17:16:56Z</time>
      </trkpt>
      <trkpt lat="46.19781" lon="-1.37545">
        <ele>7.827881</ele>
        <time>2014-08-20T17:17:14Z</time>
      </trkpt>
      <trkpt lat="46.19695" lon="-1.37545">
        <ele>7.827881</ele>
        <time>2014-08-20T17:17:30Z</time>
      </trkpt>
      <trkpt lat="46.19677" lon="-1.37516">
        <ele>7.347168</ele>
        <time>2014-08-20T17:17:36Z</time>
      </trkpt>
      <trkpt lat="46.19676" lon="-1.3744">
        <ele>7.827881</ele>
        <time>2014-08-20T17:17:46Z</time>
      </trkpt>
      <trkpt lat="46.19655" lon="-1.37418">
        <ele>8.308594</ele>
        <time>2014-08-20T17:17:53Z</time>
      </trkpt>
      <trkpt lat="46.19573" lon="-1.37419">
        <ele>8.308594</ele>
        <time>2014-08-20T17:18:10Z</time>
      </trkpt>
      <trkpt lat="46.19483" lon="-1.37417">
        <ele>7.347168</ele>
        <time>2014-08-20T17:18:28Z</time>
      </trkpt>
      <trkpt lat="46.19474" lon="-1.37414">
        <ele>7.347168</ele>
        <time>2014-08-20T17:18:30Z</time>
      </trkpt>
      <trkpt lat="46.19387" lon="-1.37402">
        <ele>7.827881</ele>
        <time>2014-08-20T17:18:47Z</time>
      </trkpt>
      <trkpt lat="46.19291" lon="-1.37392">
        <ele>7.827881</ele>
        <time>2014-08-20T17:19:06Z</time>
      </trkpt>
      <trkpt lat="46.19281" lon="-1.37369">
        <ele>8.308594</ele>
        <time>2014-08-20T17:19:11Z</time>
      </trkpt>
      <trkpt lat="46.19303" lon="-1.37254">
        <ele>8.789185</ele>
        <time>2014-08-20T17:19:28Z</time>
      </trkpt>
      <trkpt lat="46.19329" lon="-1.37114">
        <ele>8.789185</ele>
        <time>2014-08-20T17:19:48Z</time>
      </trkpt>
      <trkpt lat="46.19356" lon="-1.37019">
        <ele>9.269897</ele>
        <time>2014-08-20T17:20:05Z</time>
      </trkpt>
      <trkpt lat="46.19366" lon="-1.36978">
        <ele>9.269897</ele>
        <time>2014-08-20T17:20:13Z</time>
      </trkpt>
      <trkpt lat="46.19352" lon="-1.36942">
        <ele>8.789185</ele>
        <time>2014-08-20T17:20:20Z</time>
      </trkpt>
      <trkpt lat="46.19292" lon="-1.36892">
        <ele>8.789185</ele>
        <time>2014-08-20T17:20:39Z</time>
      </trkpt>
      <trkpt lat="46.19245" lon="-1.36866">
        <ele>8.308594</ele>
        <time>2014-08-20T17:20:57Z</time>
      </trkpt>
      <trkpt lat="46.192" lon="-1.36841">
        <ele>8.789185</ele>
        <time>2014-08-20T17:21:11Z</time>
      </trkpt>
      <trkpt lat="46.1914" lon="-1.36808">
        <ele>8.789185</ele>
        <time>2014-08-20T17:21:29Z</time>
      </trkpt>
      <trkpt lat="46.19133" lon="-1.36808">
        <ele>8.789185</ele>
        <time>2014-08-20T17:21:33Z</time>
      </trkpt>
      <trkpt lat="46.19122" lon="-1.368">
        <ele>8.789185</ele>
        <time>2014-08-20T17:21:38Z</time>
      </trkpt>
      <trkpt lat="46.19043" lon="-1.36787">
        <ele>9.75061</ele>
        <time>2014-08-20T17:21:58Z</time>
      </trkpt>
      <trkpt lat="46.18947" lon="-1.36784">
        <ele>8.789185</ele>
        <time>2014-08-20T17:22:18Z</time>
      </trkpt>
      <trkpt lat="46.18869" lon="-1.36833">
        <ele>7.827881</ele>
        <time>2014-08-20T17:22:35Z</time>
      </trkpt>
      <trkpt lat="46.18839" lon="-1.36875">
        <ele>7.347168</ele>
        <time>2014-08-20T17:22:43Z</time>
      </trkpt>
      <trkpt lat="46.18806" lon="-1.36936">
        <ele>6.866455</ele>
        <time>2014-08-20T17:22:53Z</time>
      </trkpt>
      <trkpt lat="46.188" lon="-1.36954">
        <ele>6.866455</ele>
        <time>2014-08-20T17:22:56Z</time>
      </trkpt>
      <trkpt lat="46.18781" lon="-1.36985">
        <ele>6.385864</ele>
        <time>2014-08-20T17:23:03Z</time>
      </trkpt>
      <trkpt lat="46.18738" lon="-1.37049">
        <ele>7.347168</ele>
        <time>2014-08-20T17:23:16Z</time>
      </trkpt>
      <trkpt lat="46.18665" lon="-1.37113">
        <ele>7.347168</ele>
        <time>2014-08-20T17:23:34Z</time>
      </trkpt>
      <trkpt lat="46.18617" lon="-1.37134">
        <ele>8.308594</ele>
        <time>2014-08-20T17:23:48Z</time>
      </trkpt>
      <trkpt lat="46.18611" lon="-1.37137">
        <ele>7.347168</ele>
        <time>2014-08-20T17:23:50Z</time>
      </trkpt>
      <trkpt lat="46.18553" lon="-1.37149">
        <ele>7.827881</ele>
        <time>2014-08-20T17:24:05Z</time>
      </trkpt>
      <trkpt lat="46.1846" lon="-1.37174">
        <ele>7.347168</ele>
        <time>2014-08-20T17:24:23Z</time>
      </trkpt>
      <trkpt lat="46.18378" lon="-1.37224">
        <ele>6.866455</ele>
        <time>2014-08-20T17:24:39Z</time>
      </trkpt>
      <trkpt lat="46.18275" lon="-1.37295">
        <ele>5.905273</ele>
        <time>2014-08-20T17:24:59Z</time>
      </trkpt>
      <trkpt lat="46.1816" lon="-1.3733">
        <ele>4.943848</ele>
        <time>2014-08-20T17:25:20Z</time>
      </trkpt>
      <trkpt lat="46.18047" lon="-1.37335">
        <ele>5.424561</ele>
        <time>2014-08-20T17:25:41Z</time>
      </trkpt>
      <trkpt lat="46.1799" lon="-1.37362">
        <ele>4.943848</ele>
        <time>2014-08-20T17:25:52Z</time>
      </trkpt>
      <trkpt lat="46.17972" lon="-1.37378">
        <ele>4.943848</ele>
        <time>2014-08-20T17:25:56Z</time>
      </trkpt>
      <trkpt lat="46.17947" lon="-1.37411">
        <ele>4.943848</ele>
        <time>2014-08-20T17:26:04Z</time>
      </trkpt>
      <trkpt lat="46.17934" lon="-1.37403">
        <ele>4.463257</ele>
        <time>2014-08-20T17:26:09Z</time>
      </trkpt>
      <trkpt lat="46.17929" lon="-1.37385">
        <ele>4.463257</ele>
        <time>2014-08-20T17:26:17Z</time>
      </trkpt>
      <trkpt lat="46.179" lon="-1.37387">
        <ele>4.463257</ele>
        <time>2014-08-20T17:26:28Z</time>
      </trkpt>
      <trkpt lat="46.1787" lon="-1.37362">
        <ele>4.943848</ele>
        <time>2014-08-20T17:26:39Z</time>
      </trkpt>
      <trkpt lat="46.17863" lon="-1.3735">
        <ele>4.943848</ele>
        <time>2014-08-20T17:26:42Z</time>
      </trkpt>
      <trkpt lat="46.17858" lon="-1.37319">
        <ele>4.463257</ele>
        <time>2014-08-20T17:26:48Z</time>
      </trkpt>
      <trkpt lat="46.17852" lon="-1.37255">
        <ele>4.943848</ele>
        <time>2014-08-20T17:27:00Z</time>
      </trkpt>
      <trkpt lat="46.17855" lon="-1.3723">
        <ele>4.943848</ele>
        <time>2014-08-20T17:27:05Z</time>
      </trkpt>
      <trkpt lat="46.17847" lon="-1.37182">
        <ele>5.424561</ele>
        <time>2014-08-20T17:27:13Z</time>
      </trkpt>
      <trkpt lat="46.17825" lon="-1.37157">
        <ele>4.943848</ele>
        <time>2014-08-20T17:27:18Z</time>
      </trkpt>
      <trkpt lat="46.17778" lon="-1.37085">
        <ele>3.501953</ele>
        <time>2014-08-20T17:27:29Z</time>
      </trkpt>
      <trkpt lat="46.17763" lon="-1.3707">
        <ele>3.501953</ele>
        <time>2014-08-20T17:27:33Z</time>
      </trkpt>
      <trkpt lat="46.17734" lon="-1.37049">
        <ele>5.424561</ele>
        <time>2014-08-20T17:27:40Z</time>
      </trkpt>
      <trkpt lat="46.1772" lon="-1.3704">
        <ele>5.905273</ele>
        <time>2014-08-20T17:27:43Z</time>
      </trkpt>
      <trkpt lat="46.17695" lon="-1.37029">
        <ele>5.424561</ele>
        <time>2014-08-20T17:27:49Z</time>
      </trkpt>
      <trkpt lat="46.17683" lon="-1.37025">
        <ele>5.424561</ele>
        <time>2014-08-20T17:27:52Z</time>
      </trkpt>
      <trkpt lat="46.17653" lon="-1.3701">
        <ele>5.424561</ele>
        <time>2014-08-20T17:28:00Z</time>
      </trkpt>
      <trkpt lat="46.17624" lon="-1.36953">
        <ele>5.905273</ele>
        <time>2014-08-20T17:28:14Z</time>
      </trkpt>
      <trkpt lat="46.17603" lon="-1.36902">
        <ele>6.385864</ele>
        <time>2014-08-20T17:28:28Z</time>
      </trkpt>
      <trkpt lat="46.17574" lon="-1.36866">
        <ele>7.347168</ele>
        <time>2014-08-20T17:28:42Z</time>
      </trkpt>
      <trkpt lat="46.17536" lon="-1.36828">
        <ele>8.308594</ele>
        <time>2014-08-20T17:28:55Z</time>
      </trkpt>
      <trkpt lat="46.17479" lon="-1.36783">
        <ele>7.827881</ele>
        <time>2014-08-20T17:29:09Z</time>
      </trkpt>
      <trkpt lat="46.17449" lon="-1.36761">
        <ele>7.827881</ele>
        <time>2014-08-20T17:29:17Z</time>
      </trkpt>
      <trkpt lat="46.17394" lon="-1.36694">
        <ele>6.866455</ele>
        <time>2014-08-20T17:29:32Z</time>
      </trkpt>
      <trkpt lat="46.17348" lon="-1.36614">
        <ele>5.905273</ele>
        <time>2014-08-20T17:29:47Z</time>
      </trkpt>
      <trkpt lat="46.17281" lon="-1.36517">
        <ele>4.943848</ele>
        <time>2014-08-20T17:30:05Z</time>
      </trkpt>
      <trkpt lat="46.17247" lon="-1.36478">
        <ele>4.943848</ele>
        <time>2014-08-20T17:30:13Z</time>
      </trkpt>
      <trkpt lat="46.1716" lon="-1.36391">
        <ele>3.501953</ele>
        <time>2014-08-20T17:30:33Z</time>
      </trkpt>
      <trkpt lat="46.17088" lon="-1.36314">
        <ele>5.424561</ele>
        <time>2014-08-20T17:30:50Z</time>
      </trkpt>
      <trkpt lat="46.17028" lon="-1.36272">
        <ele>6.866455</ele>
        <time>2014-08-20T17:31:04Z</time>
      </trkpt>
      <trkpt lat="46.17003" lon="-1.36256">
        <ele>5.905273</ele>
        <time>2014-08-20T17:31:15Z</time>
      </trkpt>
      <trkpt lat="46.17005" lon="-1.36256">
        <ele>6.866455</ele>
        <time>2014-08-20T17:31:22Z</time>
      </trkpt>
      <trkpt lat="46.17011" lon="-1.36259">
        <ele>7.347168</ele>
        <time>2014-08-20T17:31:26Z</time>
      </trkpt>
      <trkpt lat="46.17017" lon="-1.36248">
        <ele>6.866455</ele>
        <time>2014-08-20T17:31:31Z</time>
      </trkpt>
      <trkpt lat="46.17016" lon="-1.36155">
        <ele>9.269897</ele>
        <time>2014-08-20T17:31:43Z</time>
      </trkpt>
      <trkpt lat="46.17016" lon="-1.36137">
        <ele>8.308594</ele>
        <time>2014-08-20T17:31:45Z</time>
      </trkpt>
      <trkpt lat="46.17018" lon="-1.36107">
        <ele>7.827881</ele>
        <time>2014-08-20T17:31:49Z</time>
      </trkpt>
      <trkpt lat="46.17017" lon="-1.36083">
        <ele>7.827881</ele>
        <time>2014-08-20T17:31:52Z</time>
      </trkpt>
      <trkpt lat="46.17019" lon="-1.36055">
        <ele>8.789185</ele>
        <time>2014-08-20T17:31:55Z</time>
      </trkpt>
      <trkpt lat="46.17023" lon="-1.36038">
        <ele>8.308594</ele>
        <time>2014-08-20T17:31:57Z</time>
      </trkpt>
      <trkpt lat="46.17037" lon="-1.35996">
        <ele>8.789185</ele>
        <time>2014-08-20T17:32:03Z</time>
      </trkpt>
      <trkpt lat="46.17054" lon="-1.35974">
        <ele>8.789185</ele>
        <time>2014-08-20T17:32:08Z</time>
      </trkpt>
      <trkpt lat="46.17067" lon="-1.35966">
        <ele>9.269897</ele>
        <time>2014-08-20T17:32:11Z</time>
      </trkpt>
      <trkpt lat="46.17076" lon="-1.35958">
        <ele>9.269897</ele>
        <time>2014-08-20T17:32:13Z</time>
      </trkpt>
      <trkpt lat="46.17091" lon="-1.3595">
        <ele>9.75061</ele>
        <time>2014-08-20T17:32:17Z</time>
      </trkpt>
      <trkpt lat="46.17123" lon="-1.35936">
        <ele>9.269897</ele>
        <time>2014-08-20T17:32:24Z</time>
      </trkpt>
      <trkpt lat="46.17139" lon="-1.3592">
        <ele>9.269897</ele>
        <time>2014-08-20T17:32:28Z</time>
      </trkpt>
      <trkpt lat="46.17149" lon="-1.35906">
        <ele>9.269897</ele>
        <time>2014-08-20T17:32:31Z</time>
      </trkpt>
      <trkpt lat="46.17155" lon="-1.35896">
        <ele>9.269897</ele>
        <time>2014-08-20T17:32:33Z</time>
      </trkpt>
      <trkpt lat="46.17182" lon="-1.35845">
        <ele>8.789185</ele>
        <time>2014-08-20T17:32:45Z</time>
      </trkpt>
      <trkpt lat="46.17198" lon="-1.35833">
        <ele>8.308594</ele>
        <time>2014-08-20T17:32:55Z</time>
      </trkpt>
      <trkpt lat="46.17207" lon="-1.3582">
        <ele>8.308594</ele>
        <time>2014-08-20T17:33:05Z</time>
      </trkpt>
      <trkpt lat="46.17208" lon="-1.35814">
        <ele>8.789185</ele>
        <time>2014-08-20T17:33:08Z</time>
      </trkpt>
      <trkpt lat="46.17212" lon="-1.35812">
        <ele>8.789185</ele>
        <time>2014-08-20T17:33:12Z</time>
      </trkpt>
      <trkpt lat="46.17209" lon="-1.35818">
        <ele>8.789185</ele>
        <time>2014-08-20T17:33:20Z</time>
      </trkpt>
      <trkpt lat="46.17206" lon="-1.35819">
        <ele>8.789185</ele>
        <time>2014-08-20T17:33:25Z</time>
      </trkpt>
      <trkpt lat="46.17218" lon="-1.35794">
        <ele>7.827881</ele>
        <time>2014-08-20T17:33:37Z</time>
      </trkpt>
      <trkpt lat="46.17234" lon="-1.35777">
        <ele>8.308594</ele>
        <time>2014-08-20T17:33:45Z</time>
      </trkpt>
      <trkpt lat="46.17267" lon="-1.35732">
        <ele>9.269897</ele>
        <time>2014-08-20T17:33:59Z</time>
      </trkpt>
      <trkpt lat="46.17262" lon="-1.357">
        <ele>7.827881</ele>
        <time>2014-08-20T17:34:09Z</time>
      </trkpt>
      <trkpt lat="46.17261" lon="-1.35697">
        <ele>8.308594</ele>
        <time>2014-08-20T17:34:10Z</time>
      </trkpt>
      <trkpt lat="46.17261" lon="-1.35688">
        <ele>8.789185</ele>
        <time>2014-08-20T17:34:20Z</time>
      </trkpt>
      <trkpt lat="46.17261" lon="-1.35689">
        <ele>7.347168</ele>
        <time>2014-08-20T17:34:36Z</time>
      </trkpt>
      <trkpt lat="46.1726" lon="-1.35689">
        <ele>7.827881</ele>
        <time>2014-08-20T17:34:37Z</time>
      </trkpt>
      <trkpt lat="46.17257" lon="-1.35686">
        <ele>7.827881</ele>
        <time>2014-08-20T17:34:41Z</time>
      </trkpt>
      <trkpt lat="46.17259" lon="-1.35683">
        <ele>7.347168</ele>
        <time>2014-08-20T17:34:58Z</time>
      </trkpt>
      <trkpt lat="46.17259" lon="-1.35683">
        <ele>6.866455</ele>
        <time>2014-08-20T17:35:25Z</time>
      </trkpt>
      <trkpt lat="46.1726" lon="-1.35681">
        <ele>7.347168</ele>
        <time>2014-08-20T17:35:58Z</time>
      </trkpt>
      <trkpt lat="46.17261" lon="-1.3568">
        <ele>7.347168</ele>
        <time>2014-08-20T17:36:22Z</time>
      </trkpt>
      <trkpt lat="46.17254" lon="-1.35683">
        <ele>7.827881</ele>
        <time>2014-08-20T17:37:06Z</time>
      </trkpt>
      <trkpt lat="46.17258" lon="-1.35681">
        <ele>7.827881</ele>
        <time>2014-08-20T17:37:50Z</time>
      </trkpt>
      <trkpt lat="46.17258" lon="-1.35681">
        <ele>8.308594</ele>
        <time>2014-08-20T17:38:18Z</time>
      </trkpt>
      <trkpt lat="46.17256" lon="-1.35683">
        <ele>8.308594</ele>
        <time>2014-08-20T17:38:54Z</time>
      </trkpt>
      <trkpt lat="46.17256" lon="-1.35683">
        <ele>7.827881</ele>
        <time>2014-08-20T17:39:31Z</time>
      </trkpt>
      <trkpt lat="46.17258" lon="-1.35684">
        <ele>8.308594</ele>
        <time>2014-08-20T17:40:21Z</time>
      </trkpt>
      <trkpt lat="46.1726" lon="-1.35684">
        <ele>7.827881</ele>
        <time>2014-08-20T17:41:29Z</time>
      </trkpt>
      <trkpt lat="46.17264" lon="-1.35689">
        <ele>7.827881</ele>
        <time>2014-08-20T17:41:49Z</time>
      </trkpt>
      <trkpt lat="46.17262" lon="-1.35692">
        <ele>7.827881</ele>
        <time>2014-08-20T17:42:10Z</time>
      </trkpt>
      <trkpt lat="46.17261" lon="-1.35695">
        <ele>7.347168</ele>
        <time>2014-08-20T17:42:38Z</time>
      </trkpt>
      <trkpt lat="46.17258" lon="-1.3569">
        <ele>8.308594</ele>
        <time>2014-08-20T17:43:02Z</time>
      </trkpt>
      <trkpt lat="46.17259" lon="-1.35693">
        <ele>8.789185</ele>
        <time>2014-08-20T17:43:26Z</time>
      </trkpt>
    </trkseg>
  </trk>
</gpx>